createdAt,value
2018-08-06T00:01:01.995Z,16.68
2018-08-06T00:03:31.226Z,16.88
2018-08-06T00:06:00.183Z,16.86
2018-08-06T00:08:29.090Z,17.07
2018-08-06T00:10:58.091Z,16.97
2018-08-06T00:13:26.904Z,16.71
2018-08-06T00:15:55.774Z,16.63
2018-08-06T00:18:25.167Z,16.71
2018-08-06T00:20:54.500Z,16.73
2018-08-06T00:23:23.325Z,16.61
2018-08-06T00:25:52.209Z,16.62
2018-08-06T00:28:21.016Z,16.70
2018-08-06T00:30:49.849Z,16.58
2018-08-06T00:33:18.709Z,16.50
2018-08-06T00:35:47.490Z,16.70
2018-08-06T00:38:16.307Z,16.49
2018-08-06T00:40:45.293Z,16.47
2018-08-06T00:43:14.064Z,16.47
2018-08-06T00:45:42.923Z,16.49
2018-08-06T00:48:11.844Z,16.41
2018-08-06T00:50:40.678Z,16.44
2018-08-06T00:53:09.569Z,16.45
2018-08-06T00:55:38.566Z,16.48
2018-08-06T00:58:07.472Z,16.45
2018-08-06T01:00:36.281Z,16.41
2018-08-06T01:03:05.477Z,16.34
2018-08-06T01:05:34.296Z,16.24
2018-08-06T01:08:03.139Z,16.29
2018-08-06T01:10:32.215Z,16.47
2018-08-06T01:13:01.104Z,16.46
2018-08-06T01:15:29.977Z,16.22
2018-08-06T01:17:58.862Z,16.21
2018-08-06T01:20:27.699Z,16.19
2018-08-06T01:22:56.660Z,16.31
2018-08-06T01:25:25.593Z,16.19
2018-08-06T01:27:54.395Z,16.64
2018-08-06T01:30:23.244Z,16.31
2018-08-06T01:32:52.290Z,16.39
2018-08-06T01:35:21.167Z,16.28
2018-08-06T01:37:50.042Z,16.33
2018-08-06T01:40:18.944Z,16.36
2018-08-06T01:42:47.862Z,15.99
2018-08-06T01:45:16.785Z,15.96
2018-08-06T01:47:45.863Z,15.80
2018-08-06T01:50:15.943Z,15.98
2018-08-06T01:52:44.934Z,15.86
2018-08-06T01:55:13.764Z,15.86
2018-08-06T01:57:42.421Z,16.02
2018-08-06T02:00:15.073Z,15.95
2018-08-06T02:02:44.103Z,15.91
2018-08-06T02:05:13.008Z,15.43
2018-08-06T02:07:42.044Z,15.36
2018-08-06T02:10:12.880Z,15.08
2018-08-06T02:12:42.372Z,14.95
2018-08-06T02:15:12.069Z,15.14
2018-08-06T02:17:40.877Z,15.44
2018-08-06T02:20:15.693Z,15.50
2018-08-06T02:22:46.026Z,15.40
2018-08-06T02:25:14.835Z,15.61
2018-08-06T02:27:44.127Z,15.58
2018-08-06T02:30:14.739Z,15.62
2018-08-06T02:32:43.717Z,15.41
2018-08-06T02:35:14.048Z,15.24
2018-08-06T02:37:43.487Z,15.17
2018-08-06T02:40:19.399Z,15.34
2018-08-06T02:42:48.625Z,15.30
2018-08-06T02:45:18.316Z,15.26
2018-08-06T02:47:47.602Z,15.38
2018-08-06T02:50:16.448Z,15.37
2018-08-06T02:52:45.370Z,15.35
2018-08-06T02:55:15.456Z,15.16
2018-08-06T02:57:44.380Z,15.31
2018-08-06T03:00:15.680Z,15.41
2018-08-06T03:02:45.584Z,15.37
2018-08-06T03:05:16.257Z,15.04
2018-08-06T03:07:45.850Z,14.76
2018-08-06T03:10:14.735Z,14.77
2018-08-06T03:12:44.410Z,14.85
2018-08-06T03:15:13.401Z,14.98
2018-08-06T03:17:42.315Z,14.86
2018-08-06T03:20:12.782Z,15.03
2018-08-06T03:22:41.768Z,14.63
2018-08-06T03:25:13.831Z,14.48
2018-08-06T03:27:43.549Z,14.33
2018-08-06T03:30:15.702Z,14.81
2018-08-06T03:32:45.719Z,14.63
2018-08-06T03:35:14.621Z,14.38
2018-08-06T03:37:43.557Z,14.24
2018-08-06T03:40:12.643Z,14.21
2018-08-06T03:42:41.760Z,14.40
2018-08-06T03:45:12.681Z,14.35
2018-08-06T03:47:42.147Z,14.50
2018-08-06T03:50:12.394Z,14.51
2018-08-06T03:52:41.505Z,14.60
2018-08-06T03:55:11.048Z,14.57
2018-08-06T03:57:40.654Z,14.71
2018-08-06T04:00:12.321Z,14.58
2018-08-06T04:02:41.793Z,14.68
2018-08-06T04:05:12.040Z,14.68
2018-08-06T04:07:41.149Z,14.56
2018-08-06T04:10:13.956Z,14.70
2018-08-06T04:12:42.773Z,14.70
2018-08-06T04:15:12.234Z,14.88
2018-08-06T04:17:41.975Z,14.89
2018-08-06T04:20:11.966Z,14.95
2018-08-06T04:22:41.754Z,14.91
2018-08-06T04:25:10.678Z,14.80
2018-08-06T04:27:39.305Z,15.02
2018-08-06T04:30:11.099Z,14.96
2018-08-06T04:32:40.219Z,14.68
2018-08-06T04:35:09.141Z,14.56
2018-08-06T04:37:38.009Z,14.49
2018-08-06T04:40:09.081Z,14.67
2018-08-06T04:42:38.251Z,14.76
2018-08-06T04:45:12.414Z,14.74
2018-08-06T04:47:41.840Z,14.85
2018-08-06T04:50:13.475Z,14.77
2018-08-06T04:52:42.564Z,14.67
2018-08-06T04:55:12.871Z,14.32
2018-08-06T04:57:41.845Z,14.29
2018-08-06T05:00:13.307Z,14.30
2018-08-06T05:02:42.658Z,14.31
2018-08-06T05:05:11.459Z,14.39
2018-08-06T05:07:40.472Z,14.15
2018-08-06T05:10:09.101Z,14.15
2018-08-06T05:12:38.146Z,14.39
2018-08-06T05:15:07.141Z,14.41
2018-08-06T05:17:36.191Z,14.56
2018-08-06T05:20:05.839Z,14.80
2018-08-06T05:22:34.666Z,15.33
2018-08-06T05:25:03.931Z,15.89
2018-08-06T05:27:32.927Z,16.75
2018-08-06T05:30:01.790Z,17.15
2018-08-06T05:32:30.697Z,17.31
2018-08-06T05:34:59.465Z,16.93
2018-08-06T05:37:28.294Z,17.35
2018-08-06T05:39:57.213Z,17.65
2018-08-06T05:42:26.121Z,17.46
2018-08-06T05:44:55.015Z,17.25
2018-08-06T05:47:24.363Z,17.67
2018-08-06T05:49:53.311Z,17.83
2018-08-06T05:52:22.407Z,17.19
2018-08-06T05:54:51.260Z,17.81
2018-08-06T05:57:20.270Z,18.36
2018-08-06T05:59:49.093Z,17.88
2018-08-06T06:02:18.122Z,17.68
2018-08-06T06:04:46.986Z,17.61
2018-08-06T06:07:15.868Z,18.45
2018-08-06T06:09:44.866Z,18.69
2018-08-06T06:12:13.735Z,18.25
2018-08-06T06:14:42.580Z,18.03
2018-08-06T06:17:11.597Z,18.99
2018-08-06T06:19:40.441Z,19.41
2018-08-06T06:22:09.111Z,19.97
2018-08-06T06:24:38.088Z,19.80
2018-08-06T06:27:07.012Z,19.19
2018-08-06T06:29:35.903Z,19.09
2018-08-06T06:32:04.794Z,19.69
2018-08-06T06:34:33.508Z,20.10
2018-08-06T06:37:02.713Z,20.62
2018-08-06T06:39:31.688Z,20.21
2018-08-06T06:42:00.668Z,19.62
2018-08-06T06:44:29.523Z,19.84
2018-08-06T06:46:58.736Z,19.95
2018-08-06T06:49:27.564Z,20.47
2018-08-06T06:51:56.396Z,20.73
2018-08-06T06:54:25.274Z,20.39
2018-08-06T06:56:54.002Z,20.64
2018-08-06T06:59:23.037Z,20.51
2018-08-06T07:01:51.866Z,20.80
2018-08-06T07:04:20.558Z,20.61
2018-08-06T07:06:49.178Z,21.09
2018-08-06T07:09:18.078Z,22.30
2018-08-06T07:11:46.803Z,22.29
2018-08-06T07:14:15.806Z,22.05
2018-08-06T07:16:44.622Z,22.04
2018-08-06T07:19:13.564Z,21.83
2018-08-06T07:21:42.485Z,21.73
2018-08-06T07:24:11.552Z,21.93
2018-08-06T07:26:40.456Z,21.81
2018-08-06T07:29:09.313Z,21.94
2018-08-06T07:31:38.499Z,21.92
2018-08-06T07:34:07.417Z,22.41
2018-08-06T07:36:36.202Z,22.09
2018-08-06T07:39:09.137Z,22.79
2018-08-06T07:41:37.998Z,23.06
2018-08-06T07:44:07.169Z,23.96
2018-08-06T07:46:36.563Z,22.89
2018-08-06T07:49:05.556Z,23.19
2018-08-06T07:51:34.390Z,22.50
2018-08-06T07:54:03.406Z,24.12
2018-08-06T07:56:32.188Z,24.46
2018-08-06T07:59:01.105Z,24.38
2018-08-06T08:01:30.306Z,24.34
2018-08-06T08:03:58.956Z,24.70
2018-08-06T08:06:27.894Z,25.21
2018-08-06T08:08:56.816Z,25.65
2018-08-06T08:11:25.798Z,26.03
2018-08-06T08:13:54.742Z,26.11
2018-08-06T08:16:23.569Z,26.09
2018-08-06T08:18:52.485Z,26.01
2018-08-06T08:21:21.546Z,26.29
2018-08-06T08:23:50.445Z,24.68
2018-08-06T08:26:19.433Z,24.66
2018-08-06T08:28:48.303Z,25.53
2018-08-06T08:31:17.148Z,25.84
2018-08-06T08:33:45.979Z,25.39
2018-08-06T08:36:14.924Z,25.20
2018-08-06T08:38:43.637Z,26.53
2018-08-06T08:41:12.506Z,26.41
2018-08-06T08:43:41.360Z,26.98
2018-08-06T08:46:10.023Z,25.75
2018-08-06T08:48:38.947Z,26.92
2018-08-06T08:51:08.031Z,27.11
2018-08-06T08:53:36.725Z,27.41
2018-08-06T08:56:05.754Z,26.90
2018-08-06T08:58:34.787Z,27.39
2018-08-06T09:01:03.709Z,27.74
2018-08-06T09:03:32.787Z,26.62
2018-08-06T09:06:01.650Z,26.72
2018-08-06T09:08:30.551Z,26.64
2018-08-06T09:10:59.465Z,26.91
2018-08-06T09:13:28.384Z,27.77
2018-08-06T09:15:57.289Z,28.47
2018-08-06T09:18:26.155Z,27.84
2018-08-06T09:20:54.825Z,26.87
2018-08-06T09:23:23.675Z,27.47
2018-08-06T09:25:52.499Z,27.78
2018-08-06T09:28:21.563Z,28.22
2018-08-06T09:30:50.428Z,27.22
2018-08-06T09:33:19.316Z,27.33
2018-08-06T09:35:48.125Z,26.93
2018-08-06T09:38:17.103Z,27.81
2018-08-06T09:40:46.099Z,28.55
2018-08-06T09:43:14.986Z,28.43
2018-08-06T09:45:43.798Z,27.70
2018-08-06T09:48:12.761Z,27.76
2018-08-06T09:50:41.411Z,26.68
2018-08-06T09:53:10.372Z,27.09
2018-08-06T09:55:39.295Z,27.99
2018-08-06T09:58:08.160Z,26.67
2018-08-06T10:00:44.959Z,27.85
2018-08-06T10:03:13.896Z,28.11
2018-08-06T10:05:42.616Z,27.48
2018-08-06T10:08:11.202Z,27.40
2018-08-06T10:10:40.310Z,26.93
2018-08-06T10:13:09.325Z,27.24
2018-08-06T10:15:38.315Z,27.68
2018-08-06T10:18:07.205Z,27.05
2018-08-06T10:20:36.084Z,27.27
2018-08-06T10:23:05.071Z,27.04
2018-08-06T10:25:34.036Z,27.03
2018-08-06T10:28:03.015Z,27.36
2018-08-06T10:30:31.900Z,27.22
2018-08-06T10:33:00.783Z,27.35
2018-08-06T10:35:29.739Z,27.85
2018-08-06T10:37:58.588Z,27.71
2018-08-06T10:40:27.663Z,27.79
2018-08-06T10:42:56.469Z,28.06
2018-08-06T10:45:31.508Z,28.04
2018-08-06T10:48:00.143Z,28.50
2018-08-06T10:50:29.468Z,28.01
2018-08-06T10:52:58.390Z,27.83
2018-08-06T10:55:28.136Z,27.84
2018-08-06T10:57:57.062Z,28.06
2018-08-06T11:00:25.944Z,28.30
2018-08-06T11:02:54.941Z,28.63
2018-08-06T11:05:23.759Z,28.64
2018-08-06T11:07:52.667Z,27.60
2018-08-06T11:10:22.870Z,27.81
2018-08-06T11:12:51.719Z,28.61
2018-08-06T11:15:24.033Z,28.43
2018-08-06T11:17:53.004Z,28.56
2018-08-06T11:20:22.348Z,28.97
2018-08-06T11:22:51.219Z,28.62
2018-08-06T11:25:21.906Z,28.81
2018-08-06T11:27:51.011Z,29.06
2018-08-06T11:30:21.169Z,29.22
2018-08-06T11:32:51.126Z,28.86
2018-08-06T11:35:20.041Z,29.23
2018-08-06T11:37:48.945Z,29.29
2018-08-06T11:40:18.173Z,29.32
2018-08-06T11:42:47.832Z,28.18
2018-08-06T11:45:18.215Z,28.94
2018-08-06T11:47:47.131Z,29.02
2018-08-06T11:50:15.956Z,29.03
2018-08-06T11:52:45.328Z,29.06
2018-08-06T11:55:14.209Z,29.34
2018-08-06T11:57:43.142Z,29.39
2018-08-06T12:00:17.975Z,29.75
2018-08-06T12:02:46.919Z,29.70
2018-08-06T12:05:16.104Z,29.79
2018-08-06T12:07:45.248Z,29.70
2018-08-06T12:10:16.072Z,29.31
2018-08-06T12:12:45.948Z,29.12
2018-08-06T12:15:15.008Z,29.31
2018-08-06T12:17:43.939Z,29.67
2018-08-06T12:20:16.301Z,29.96
2018-08-06T12:22:46.332Z,29.82
2018-08-06T12:25:16.076Z,29.94
2018-08-06T12:27:45.552Z,29.20
2018-08-06T12:30:17.260Z,29.79
2018-08-06T12:32:46.812Z,29.71
2018-08-06T12:35:16.184Z,29.49
2018-08-06T12:37:45.686Z,30.13
2018-08-06T12:40:16.513Z,30.06
2018-08-06T12:42:45.488Z,29.91
2018-08-06T12:45:20.316Z,29.52
2018-08-06T12:47:49.198Z,29.68
2018-08-06T12:50:18.154Z,30.22
2018-08-06T12:52:47.033Z,30.41
2018-08-06T12:55:16.932Z,29.81
2018-08-06T12:57:46.175Z,29.74
2018-08-06T13:00:21.155Z,29.96
2018-08-06T13:02:50.828Z,30.55
2018-08-06T13:05:20.384Z,30.45
2018-08-06T13:07:49.423Z,30.67
2018-08-06T13:10:18.288Z,30.52
2018-08-06T13:12:47.274Z,30.76
2018-08-06T13:15:16.618Z,30.82
2018-08-06T13:17:45.661Z,30.90
2018-08-06T13:20:14.507Z,30.98
2018-08-06T13:22:43.564Z,30.79
2018-08-06T13:25:13.129Z,30.65
2018-08-06T13:27:42.042Z,31.06
2018-08-06T13:30:14.224Z,31.33
2018-08-06T13:32:43.820Z,31.00
2018-08-06T13:35:13.689Z,31.29
2018-08-06T13:37:42.666Z,31.46
2018-08-06T13:40:12.108Z,31.49
2018-08-06T13:42:41.088Z,31.25
2018-08-06T13:45:12.328Z,31.40
2018-08-06T13:47:41.424Z,31.49
2018-08-06T13:50:11.232Z,31.47
2018-08-06T13:52:40.295Z,31.32
2018-08-06T13:55:10.969Z,31.22
2018-08-06T13:57:40.185Z,31.61
2018-08-06T14:00:14.825Z,31.45
2018-08-06T14:02:44.054Z,31.04
2018-08-06T14:05:14.235Z,31.46
2018-08-06T14:07:44.419Z,31.50
2018-08-06T14:10:13.368Z,31.42
2018-08-06T14:12:42.257Z,31.43
2018-08-06T14:15:12.116Z,31.43
2018-08-06T14:17:41.650Z,31.66
2018-08-06T14:20:12.944Z,31.52
2018-08-06T14:22:41.798Z,31.51
2018-08-06T14:25:11.451Z,31.79
2018-08-06T14:27:40.472Z,31.51
2018-08-06T14:30:12.236Z,32.04
2018-08-06T14:32:41.560Z,31.98
2018-08-06T14:35:10.596Z,32.24
2018-08-06T14:37:39.559Z,32.36
2018-08-06T14:40:13.073Z,31.34
2018-08-06T14:42:41.823Z,31.74
2018-08-06T14:45:16.729Z,31.77
2018-08-06T14:47:45.864Z,31.91
2018-08-06T14:50:15.210Z,32.04
2018-08-06T14:52:44.179Z,32.07
2018-08-06T14:55:14.102Z,31.71
2018-08-06T14:57:43.037Z,31.78
2018-08-06T15:00:22.447Z,31.67
2018-08-06T15:02:52.531Z,31.79
2018-08-06T15:05:21.431Z,32.18
2018-08-06T15:07:50.371Z,31.81
2018-08-06T15:10:19.252Z,32.10
2018-08-06T15:12:48.101Z,32.47
2018-08-06T15:15:17.948Z,32.62
2018-08-06T15:17:48.020Z,32.44
2018-08-06T15:20:18.200Z,32.01
2018-08-06T15:22:47.577Z,32.11
2018-08-06T15:25:19.335Z,32.56
2018-08-06T15:27:48.503Z,32.73
2018-08-06T15:30:17.393Z,32.33
2018-08-06T15:32:46.413Z,32.56
2018-08-06T15:35:15.367Z,32.07
2018-08-06T15:37:44.731Z,32.21
2018-08-06T15:40:17.145Z,32.24
2018-08-06T15:42:46.103Z,32.42
2018-08-06T15:45:20.962Z,31.96
2018-08-06T15:47:49.848Z,32.19
2018-08-06T15:50:20.328Z,32.12
2018-08-06T15:52:49.473Z,31.96
2018-08-06T15:55:18.324Z,32.46
2018-08-06T15:57:47.287Z,32.32
2018-08-06T16:00:18.247Z,32.42
2018-08-06T16:02:47.422Z,32.30
2018-08-06T16:05:16.341Z,31.84
2018-08-06T16:07:45.579Z,31.61
2018-08-06T16:10:15.088Z,31.67
2018-08-06T16:12:43.998Z,32.28
2018-08-06T16:15:13.947Z,32.23
2018-08-06T16:17:43.612Z,32.25
2018-08-06T16:20:14.916Z,31.86
2018-08-06T16:22:44.030Z,31.92
2018-08-06T16:25:13.571Z,31.90
2018-08-06T16:27:42.545Z,31.81
2018-08-06T16:30:19.412Z,31.81
2018-08-06T16:32:48.638Z,31.85
2018-08-06T16:35:19.560Z,31.92
2018-08-06T16:37:49.759Z,31.97
2018-08-06T16:40:18.718Z,32.01
2018-08-06T16:42:48.694Z,31.99
2018-08-06T16:45:23.706Z,32.06
2018-08-06T16:47:52.880Z,31.94
2018-08-06T16:50:21.888Z,31.87
2018-08-06T16:52:50.924Z,31.77
2018-08-06T16:55:19.481Z,31.73
2018-08-06T16:57:48.355Z,31.60
2018-08-06T17:00:21.114Z,31.23
2018-08-06T17:02:51.240Z,31.40
2018-08-06T17:05:20.335Z,31.22
2018-08-06T17:07:49.739Z,31.17
2018-08-06T17:10:19.423Z,31.23
2018-08-06T17:12:50.656Z,31.06
2018-08-06T17:15:20.596Z,31.11
2018-08-06T17:17:51.308Z,30.98
2018-08-06T17:20:21.375Z,30.90
2018-08-06T17:22:51.108Z,30.90
2018-08-06T17:25:20.193Z,30.70
2018-08-06T17:27:49.068Z,30.34
2018-08-06T17:30:18.245Z,30.54
2018-08-06T17:32:47.199Z,30.44
2018-08-06T17:35:16.543Z,30.38
2018-08-06T17:37:45.572Z,30.37
2018-08-06T17:40:17.917Z,30.37
2018-08-06T17:42:47.159Z,30.24
2018-08-06T17:45:23.201Z,29.95
2018-08-06T17:47:52.238Z,29.95
2018-08-06T17:50:22.284Z,29.87
2018-08-06T17:52:51.847Z,29.81
2018-08-06T17:55:24.301Z,29.76
2018-08-06T17:57:53.121Z,29.60
2018-08-06T18:00:21.798Z,29.49
2018-08-06T18:02:50.927Z,29.43
2018-08-06T18:05:19.562Z,29.32
2018-08-06T18:07:48.581Z,29.20
2018-08-06T18:10:17.767Z,29.10
2018-08-06T18:12:47.016Z,29.06
2018-08-06T18:15:16.006Z,28.97
2018-08-06T18:17:45.009Z,28.86
2018-08-06T18:20:15.786Z,28.72
2018-08-06T18:22:44.868Z,28.61
2018-08-06T18:25:15.967Z,28.52
2018-08-06T18:27:46.052Z,28.40
2018-08-06T18:30:21.007Z,28.36
2018-08-06T18:32:49.851Z,28.26
2018-08-06T18:35:19.487Z,28.13
2018-08-06T18:37:48.586Z,28.00
2018-08-06T18:40:18.811Z,27.85
2018-08-06T18:42:48.219Z,27.69
2018-08-06T18:45:18.261Z,27.62
2018-08-06T18:47:47.899Z,27.54
2018-08-06T18:50:17.656Z,27.47
2018-08-06T18:52:47.330Z,27.31
2018-08-06T18:55:16.572Z,27.22
2018-08-06T18:57:45.915Z,27.23
2018-08-06T19:00:18.804Z,27.06
2018-08-06T19:02:47.896Z,26.91
2018-08-06T19:05:17.001Z,26.80
2018-08-06T19:07:45.678Z,26.77
2018-08-06T19:10:14.553Z,26.65
2018-08-06T19:12:48.874Z,26.55
2018-08-06T19:15:17.896Z,26.54
2018-08-06T19:17:52.443Z,26.38
2018-08-06T19:20:21.362Z,26.18
2018-08-06T19:22:50.332Z,26.09
2018-08-06T19:25:27.397Z,26.08
2018-08-06T19:27:56.540Z,25.94
2018-08-06T19:30:31.023Z,25.96
2018-08-06T19:33:00.888Z,25.84
2018-08-06T19:35:30.111Z,25.74
2018-08-06T19:37:59.020Z,25.64
2018-08-06T19:40:28.628Z,25.55
2018-08-06T19:43:03.011Z,25.57
2018-08-06T19:45:38.267Z,25.63
2018-08-06T19:48:06.926Z,25.47
2018-08-06T19:50:41.206Z,25.17
2018-08-06T19:53:10.015Z,24.97
2018-08-06T19:55:44.738Z,24.77
2018-08-06T19:58:13.640Z,24.63
2018-08-06T20:00:43.885Z,24.70
2018-08-06T20:03:12.691Z,24.34
2018-08-06T20:05:41.599Z,24.25
2018-08-06T20:08:10.625Z,24.07
2018-08-06T20:10:39.428Z,24.36
2018-08-06T20:13:08.477Z,24.40
2018-08-06T20:15:37.349Z,24.38
2018-08-06T20:18:06.261Z,24.35
2018-08-06T20:20:35.323Z,24.16
2018-08-06T20:23:04.258Z,24.05
2018-08-06T20:25:33.060Z,23.98
2018-08-06T20:28:02.124Z,23.92
2018-08-06T20:30:31.019Z,23.72
2018-08-06T20:32:59.887Z,23.74
2018-08-06T20:35:28.916Z,23.68
2018-08-06T20:37:57.745Z,23.45
2018-08-06T20:40:26.709Z,23.69
2018-08-06T20:42:55.779Z,23.40
2018-08-06T20:45:24.628Z,23.44
2018-08-06T20:47:53.432Z,23.29
2018-08-06T20:50:23.314Z,23.20
2018-08-06T20:52:53.179Z,23.17
2018-08-06T20:55:22.275Z,23.16
2018-08-06T20:57:51.338Z,22.91
2018-08-06T21:00:22.923Z,23.01
2018-08-06T21:02:52.539Z,22.86
2018-08-06T21:05:21.653Z,22.94
2018-08-06T21:07:50.691Z,22.90
2018-08-06T21:10:20.185Z,22.68
2018-08-06T21:12:49.441Z,22.62
2018-08-06T21:15:18.407Z,22.68
2018-08-06T21:17:47.415Z,22.60
2018-08-06T21:20:17.957Z,22.55
2018-08-06T21:22:48.106Z,22.55
2018-08-06T21:25:17.030Z,22.57
2018-08-06T21:27:47.228Z,22.57
2018-08-06T21:30:18.953Z,22.66
2018-08-06T21:32:54.332Z,22.64
2018-08-06T21:35:24.669Z,22.60
2018-08-06T21:37:54.433Z,22.44
2018-08-06T21:40:24.488Z,22.31
2018-08-06T21:42:53.623Z,22.41
2018-08-06T21:45:22.474Z,22.20
2018-08-06T21:47:51.372Z,22.22
2018-08-06T21:50:20.399Z,22.23
2018-08-06T21:52:49.548Z,22.18
2018-08-06T21:55:18.516Z,22.18
2018-08-06T21:57:47.413Z,22.16
2018-08-06T22:00:34.230Z,22.12
2018-08-06T22:03:04.378Z,22.05
2018-08-06T22:05:33.456Z,22.19
2018-08-06T22:08:02.334Z,22.12
2018-08-06T22:10:31.301Z,21.88
2018-08-06T22:13:00.188Z,21.85
2018-08-06T22:15:29.156Z,21.87
2018-08-06T22:17:58.199Z,21.86
2018-08-06T22:20:27.087Z,21.69
2018-08-06T22:22:55.807Z,21.70
2018-08-06T22:25:24.820Z,21.69
2018-08-06T22:27:53.859Z,21.65
2018-08-06T22:30:22.948Z,21.55
2018-08-06T22:32:51.964Z,21.58
2018-08-06T22:35:20.863Z,21.47
2018-08-06T22:37:49.735Z,21.50
2018-08-06T22:40:18.799Z,21.34
2018-08-06T22:42:47.708Z,21.31
2018-08-06T22:45:22.759Z,21.28
2018-08-06T22:47:51.579Z,21.06
2018-08-06T22:50:20.473Z,20.99
2018-08-06T22:52:49.527Z,21.09
2018-08-06T22:55:18.384Z,20.95
2018-08-06T22:57:47.289Z,20.74
2018-08-06T23:00:16.855Z,20.73
2018-08-06T23:02:45.756Z,20.80
2018-08-06T23:05:16.133Z,20.94
2018-08-06T23:07:45.117Z,20.84
2018-08-06T23:10:16.488Z,20.75
2018-08-06T23:12:46.080Z,20.45
2018-08-06T23:15:16.499Z,20.33
2018-08-06T23:17:45.692Z,20.46
2018-08-06T23:20:14.662Z,20.50
2018-08-06T23:22:43.819Z,20.35
2018-08-06T23:25:12.769Z,20.35
2018-08-06T23:27:41.724Z,20.31
2018-08-06T23:30:13.524Z,20.27
2018-08-06T23:32:42.496Z,20.15
2018-08-06T23:35:12.593Z,20.21
2018-08-06T23:37:42.609Z,20.32
2018-08-06T23:40:12.671Z,20.58
2018-08-06T23:42:42.498Z,20.56
2018-08-06T23:45:13.800Z,20.45
2018-08-06T23:47:42.804Z,20.49
2018-08-06T23:50:13.817Z,20.40
2018-08-06T23:52:44.075Z,20.46
2018-08-06T23:55:15.426Z,20.32
2018-08-06T23:57:44.184Z,20.44
